createdAt,value
2023-04-05T00:01:13.845Z,2.50
2023-04-05T00:06:17.070Z,2.60
2023-04-05T00:11:21.883Z,2.60
2023-04-05T00:16:25.159Z,2.70
2023-04-05T00:21:28.519Z,2.90
2023-04-05T00:26:33.210Z,3.00
2023-04-05T00:31:36.535Z,2.90
2023-04-05T00:36:39.838Z,2.90
2023-04-05T00:41:46.889Z,2.90
2023-04-05T00:46:52.255Z,2.90
2023-04-05T00:51:56.353Z,3.00
2023-04-05T00:57:02.079Z,3.10
2023-04-05T01:02:17.003Z,3.10
2023-04-05T01:07:30.424Z,3.20
2023-04-05T01:12:36.999Z,3.10
2023-04-05T01:17:42.063Z,3.00
2023-04-05T01:23:15.726Z,3.00
2023-04-05T01:28:42.209Z,2.90
2023-04-05T01:33:55.070Z,2.80
2023-04-05T01:39:00.534Z,2.80
2023-04-05T01:44:04.226Z,2.80
2023-04-05T01:49:09.392Z,2.90
2023-04-05T01:54:12.643Z,2.80
2023-04-05T01:59:16.296Z,2.70
2023-04-05T02:04:20.991Z,2.70
2023-04-05T02:09:24.592Z,2.70
2023-04-05T02:14:28.095Z,2.70
2023-04-05T02:19:37.724Z,2.70
2023-04-05T02:24:43.233Z,2.80
2023-04-05T02:29:47.862Z,2.80
2023-04-05T02:34:53.178Z,2.90
2023-04-05T02:40:00.045Z,2.90
2023-04-05T02:45:03.856Z,2.90
2023-04-05T02:50:10.456Z,2.80
2023-04-05T02:55:19.867Z,2.70
2023-04-05T03:00:23.835Z,2.70
2023-04-05T03:05:31.054Z,2.70
2023-04-05T03:10:39.609Z,2.70
2023-04-05T03:15:54.931Z,2.70
2023-04-05T03:21:02.192Z,2.70
2023-04-05T03:26:06.778Z,2.50
2023-04-05T03:31:15.530Z,2.50
2023-04-05T03:36:20.952Z,2.40
2023-04-05T03:41:28.603Z,2.40
2023-04-05T03:46:34.091Z,2.40
2023-04-05T03:51:39.748Z,2.30
2023-04-05T03:56:43.554Z,2.30
2023-04-05T04:01:51.295Z,2.30
2023-04-05T04:06:58.628Z,2.20
2023-04-05T04:12:04.435Z,2.20
2023-04-05T04:17:08.672Z,2.10
2023-04-05T04:22:50.454Z,2.10
2023-04-05T04:28:25.985Z,2.20
2023-04-05T04:33:40.853Z,2.20
2023-04-05T04:39:07.458Z,2.20
2023-04-05T04:44:31.261Z,2.30
2023-04-05T04:49:35.108Z,2.20
2023-04-05T04:54:42.734Z,2.20
2023-04-05T04:59:46.543Z,2.30
2023-04-05T05:04:49.912Z,2.30
2023-04-05T05:09:54.896Z,2.30
2023-04-05T05:14:58.631Z,2.30
2023-04-05T05:20:05.782Z,2.40
2023-04-05T05:25:12.704Z,2.50
2023-04-05T05:30:16.378Z,2.50
2023-04-05T05:35:20.150Z,2.70
2023-04-05T05:40:27.326Z,2.80
2023-04-05T05:45:31.211Z,2.90
2023-04-05T05:50:34.875Z,2.90
2023-04-05T05:55:40.266Z,3.00
2023-04-05T06:00:44.483Z,3.20
2023-04-05T06:05:53.366Z,3.50
2023-04-05T06:10:58.352Z,3.60
2023-04-05T06:16:03.335Z,3.70
2023-04-05T06:21:07.097Z,3.90
2023-04-05T06:26:19.032Z,4.10
2023-04-05T06:31:27.710Z,4.20
2023-04-05T06:36:34.530Z,4.40
2023-04-05T06:41:39.853Z,4.40
2023-04-05T06:46:43.487Z,4.40
2023-04-05T06:51:46.720Z,4.40
2023-04-05T06:56:51.830Z,4.30
2023-04-05T07:01:55.375Z,4.40
2023-04-05T07:06:59.124Z,4.40
2023-04-05T07:12:05.621Z,4.50
2023-04-05T07:17:09.833Z,4.70
2023-04-05T07:22:13.520Z,4.80
2023-04-05T07:27:18.614Z,4.90
2023-04-05T07:32:22.301Z,5.10
2023-04-05T07:37:27.375Z,5.20
2023-04-05T07:42:32.191Z,5.30
2023-04-05T07:47:36.233Z,5.30
2023-04-05T07:52:39.910Z,5.40
2023-04-05T07:57:44.788Z,5.60
2023-04-05T08:02:48.487Z,5.70
2023-04-05T08:07:52.338Z,5.90
2023-04-05T08:12:57.352Z,6.20
2023-04-05T08:18:01.503Z,6.40
2023-04-05T08:23:05.363Z,6.50
2023-04-05T08:28:10.293Z,6.60
2023-04-05T08:33:14.232Z,6.70
2023-04-05T08:38:17.516Z,6.90
2023-04-05T08:43:27.109Z,6.90
2023-04-05T08:48:36.423Z,7.00
2023-04-05T08:53:40.810Z,7.20
2023-04-05T08:58:50.645Z,7.20
2023-04-05T09:03:56.196Z,7.40
2023-04-05T09:08:59.739Z,8.20
2023-04-05T09:14:06.667Z,8.60
2023-04-05T09:19:11.497Z,8.80
2023-04-05T09:24:15.096Z,8.90
2023-04-05T09:29:32.142Z,8.80
2023-04-05T09:34:38.773Z,8.90
2023-04-05T09:39:46.240Z,8.50
2023-04-05T09:45:01.745Z,7.90
2023-04-05T09:50:20.520Z,7.60
2023-04-05T09:55:30.210Z,7.40
2023-04-05T10:00:38.189Z,7.40
2023-04-05T10:05:41.609Z,7.40
2023-04-05T10:10:49.024Z,7.30
2023-04-05T10:15:58.013Z,7.70
2023-04-05T10:21:02.337Z,8.00
2023-04-05T10:26:12.090Z,8.00
2023-04-05T10:31:36.230Z,8.20
2023-04-05T10:36:50.650Z,8.20
2023-04-05T10:41:57.897Z,8.60
2023-04-05T10:47:03.899Z,9.40
2023-04-05T10:52:08.025Z,10.10
2023-04-05T10:57:13.758Z,10.70
2023-04-05T11:02:19.088Z,10.80
2023-04-05T11:07:22.284Z,10.90
2023-04-05T11:13:02.442Z,11.30
2023-04-05T11:18:09.648Z,11.70
2023-04-05T11:23:14.188Z,11.50
2023-04-05T11:28:25.265Z,11.80
2023-04-05T11:33:40.174Z,12.00
2023-04-05T11:38:45.445Z,12.30
2023-04-05T11:43:51.321Z,12.10
2023-04-05T11:48:58.636Z,12.20
2023-04-05T11:54:01.991Z,11.80
2023-04-05T11:59:05.824Z,11.50
2023-04-05T12:04:10.454Z,11.20
2023-04-05T12:09:13.782Z,11.00
2023-04-05T12:14:17.106Z,10.40
2023-04-05T12:19:24.116Z,10.00
2023-04-05T12:24:27.481Z,9.60
2023-04-05T12:29:30.690Z,9.20
2023-04-05T12:34:38.210Z,9.00
2023-04-05T12:39:41.922Z,8.80
2023-04-05T12:44:45.774Z,8.90
2023-04-05T12:49:50.852Z,8.90
2023-04-05T12:54:57.249Z,9.10
2023-04-05T13:00:00.617Z,9.40
2023-04-05T13:05:05.561Z,9.80
2023-04-05T13:10:10.933Z,10.10
2023-04-05T13:15:15.598Z,10.20
2023-04-05T13:20:20.392Z,10.40
2023-04-05T13:25:23.868Z,10.70
2023-04-05T13:30:27.706Z,10.90
2023-04-05T13:35:32.343Z,11.20
2023-04-05T13:40:35.640Z,11.20
2023-04-05T13:45:39.528Z,11.20
2023-04-05T13:50:44.393Z,11.20
2023-04-05T13:55:47.623Z,11.20
2023-04-05T14:00:51.346Z,11.00
2023-04-05T14:05:56.015Z,10.90
2023-04-05T14:10:59.420Z,10.70
2023-04-05T14:16:02.991Z,10.60
2023-04-05T14:21:07.849Z,10.30
2023-04-05T14:26:11.413Z,10.10
2023-04-05T14:31:14.805Z,10.10
2023-04-05T14:36:19.768Z,10.10
2023-04-05T14:41:23.177Z,10.00
2023-04-05T14:46:26.687Z,9.80
2023-04-05T14:51:31.926Z,9.80
2023-04-05T14:56:35.551Z,9.70
2023-04-05T15:01:41.684Z,9.70
2023-04-05T15:06:47.016Z,9.70
2023-04-05T15:11:51.173Z,9.70
2023-04-05T15:16:54.611Z,9.60
2023-04-05T15:21:59.890Z,9.40
2023-04-05T15:27:03.263Z,9.20
2023-04-05T15:32:06.730Z,9.10
2023-04-05T15:37:11.572Z,8.90
2023-04-05T15:42:15.713Z,8.70
2023-04-05T15:47:19.642Z,8.60
2023-04-05T15:52:24.750Z,8.50
2023-04-05T15:57:28.529Z,8.30
2023-04-05T16:02:32.462Z,8.20
2023-04-05T16:07:37.262Z,8.00
2023-04-05T16:12:40.609Z,7.80
2023-04-05T16:17:44.322Z,7.70
2023-04-05T16:22:49.567Z,7.70
2023-04-05T16:27:53.308Z,7.60
2023-04-05T16:32:56.985Z,7.60
2023-04-05T16:38:02.725Z,7.60
2023-04-05T16:43:05.904Z,7.60
2023-04-05T16:48:09.852Z,7.60
2023-04-05T16:53:16.065Z,7.70
2023-04-05T16:58:19.384Z,7.80
2023-04-05T17:03:23.413Z,7.90
2023-04-05T17:08:28.369Z,7.90
2023-04-05T17:13:31.845Z,7.90
2023-04-05T17:18:35.191Z,7.80
2023-04-05T17:23:40.000Z,7.70
2023-04-05T17:28:43.439Z,7.50
2023-04-05T17:33:50.454Z,7.40
2023-04-05T17:38:55.328Z,7.30
2023-04-05T17:43:59.578Z,7.10
2023-04-05T17:49:03.256Z,6.90
2023-04-05T17:54:08.694Z,6.80
2023-04-05T17:59:12.048Z,6.60
2023-04-05T18:04:15.603Z,6.50
2023-04-05T18:09:20.691Z,6.40
2023-04-05T18:14:24.039Z,6.40
2023-04-05T18:19:27.364Z,6.40
2023-04-05T18:24:32.508Z,6.30
2023-04-05T18:29:38.049Z,6.30
2023-04-05T18:34:41.498Z,6.30
2023-04-05T18:39:46.277Z,6.40
2023-04-05T18:44:49.598Z,6.30
2023-04-05T18:49:53.164Z,6.10
2023-04-05T18:54:58.614Z,6.10
2023-04-05T19:00:03.016Z,5.90
2023-04-05T19:05:07.288Z,5.90
2023-04-05T19:10:12.706Z,5.70
2023-04-05T19:15:16.970Z,5.60
2023-04-05T19:20:20.419Z,5.50
2023-04-05T19:25:25.201Z,5.40
2023-04-05T19:30:28.554Z,5.30
2023-04-05T19:35:33.392Z,5.10
2023-04-05T19:40:39.088Z,5.00
2023-04-05T19:45:42.746Z,5.00
2023-04-05T19:50:53.371Z,4.80
2023-04-05T19:56:00.515Z,4.70
2023-04-05T20:01:04.136Z,4.70
2023-04-05T20:06:10.787Z,4.50
2023-04-05T20:11:18.193Z,4.30
2023-04-05T20:16:26.669Z,4.30
2023-04-05T20:21:31.462Z,4.10
2023-04-05T20:26:36.716Z,4.00
2023-04-05T20:31:41.812Z,3.90
2023-04-05T20:36:49.310Z,3.90
2023-04-05T20:41:55.689Z,3.90
2023-04-05T20:47:00.116Z,3.80
2023-04-05T20:52:08.030Z,3.70
2023-04-05T20:57:13.325Z,3.60
2023-04-05T21:02:16.926Z,3.60
2023-04-05T21:07:20.296Z,3.70
2023-04-05T21:12:25.103Z,3.70
2023-04-05T21:17:28.554Z,3.60
2023-04-05T21:22:32.001Z,3.60
2023-04-05T21:27:36.772Z,3.50
2023-04-05T21:32:40.127Z,3.60
2023-04-05T21:37:43.463Z,3.60
2023-04-05T21:42:48.158Z,3.60
2023-04-05T21:47:52.209Z,3.60
2023-04-05T21:52:55.562Z,3.50
2023-04-05T21:58:00.494Z,3.50
2023-04-05T22:03:04.310Z,3.40
2023-04-05T22:08:08.529Z,3.40
2023-04-05T22:13:15.623Z,3.30
2023-04-05T22:18:19.137Z,3.40
2023-04-05T22:23:22.995Z,3.50
2023-04-05T22:28:28.684Z,3.50
2023-04-05T22:33:32.397Z,3.60
2023-04-05T22:38:35.997Z,3.60
2023-04-05T22:43:40.788Z,3.60
2023-04-05T22:48:44.489Z,3.70
2023-04-05T22:53:48.586Z,3.50
2023-04-05T22:58:53.411Z,3.60
2023-04-05T23:03:57.271Z,3.70
2023-04-05T23:09:01.809Z,3.70
2023-04-05T23:14:06.786Z,3.80
2023-04-05T23:19:10.557Z,3.90
2023-04-05T23:24:14.451Z,4.00
2023-04-05T23:29:20.030Z,4.10
2023-04-05T23:34:23.651Z,4.20
2023-04-05T23:39:27.400Z,4.30
2023-04-05T23:44:32.700Z,4.50
2023-04-05T23:49:36.563Z,4.60
2023-04-05T23:54:39.982Z,4.60
2023-04-05T23:59:45.113Z,4.60
